»·PEaware :: WAT540 KAPV-KLAS

WAT540 :: KAPV-KLAS

FLIGHT INFORMATION

Flight Status: Arrived
Operator:
Walker Air Transport
More flights by this operator :: More flights under this callsign
Pilot: Michael R. (33632)
Aircraft: PIPER PA-30 TWIN COMANCHE
(PA30)
More flights by this aircraft type
Origin: KAPV Apple Valley
United States
Destination: KLAS McCarran Intl
United States
More flights between these airports :: More routes between these airports
Route:
File this flight plan on PilotEdge
Remarks:
Altitude:
(Current/Filed)
9,500ft
Speed:
(Current/Filed)
160kts
Departed: 15-Feb-21 01:24 AM
Arrived: 15-Feb-21 02:38 AM
Distance/Time
Traveled:
134nm/1:14
Distance/Time
To Go:
Arrived

Flight Plot

Page will automatically refresh every two minutes.

Flight plan parsing failed; only flown route is shown


Map Options




Map Legend


Flown Route
Filed Route
Departure Airport
Arrival Airport
Navaid (VOR, NDB)
Fix

Horizontal Profiles

Position Reports

Time Latitude Longitude Heading Altitude Ground
Speed
15-Feb-21 01:10 34.573623 -117.189543 89 3065ft 0kts
15-Feb-21 01:11 34.573623 -117.189543 89 3065ft 0kts
15-Feb-21 01:12 34.573623 -117.189543 89 3065ft 0kts
15-Feb-21 01:13 34.573623 -117.189543 89 3065ft 0kts
15-Feb-21 01:14 34.573623 -117.189543 89 3065ft 0kts
15-Feb-21 01:15 34.573623 -117.189543 89 3065ft 0kts
15-Feb-21 01:16 34.573623 -117.189543 89 3065ft 0kts
15-Feb-21 01:17 34.573623 -117.189543 89 3065ft 0kts
15-Feb-21 01:18 34.573623 -117.189543 90 3065ft 0kts
15-Feb-21 01:19 34.573623 -117.189542 90 3065ft 0kts
15-Feb-21 01:19 34.572983 -117.189021 191 3065ft 9kts
15-Feb-21 01:21 34.570670 -117.189374 93 3065ft 0kts
15-Feb-21 01:22 34.570670 -117.189375 92 3065ft 0kts
15-Feb-21 01:22 34.570765 -117.188428 25 3064ft 14kts
15-Feb-21 01:23 34.590122 -117.182748 1 3663ft 83kts
15-Feb-21 01:25 34.623109 -117.187210 349 4252ft 116kts
15-Feb-21 01:26 34.655387 -117.188978 350 5023ft 116kts
15-Feb-21 01:26 34.682042 -117.190007 349 5673ft 114kts
15-Feb-21 01:27 34.713055 -117.191180 348 6399ft 111kts
15-Feb-21 01:28 34.740805 -117.169020 34 7105ft 128kts
15-Feb-21 01:29 34.764737 -117.137426 34 7783ft 126kts
15-Feb-21 01:30 34.788026 -117.106219 33 8432ft 123kts
15-Feb-21 01:31 34.810662 -117.075848 33 9045ft 120kts
15-Feb-21 01:32 34.834261 -117.044210 34 9348ft 127kts
15-Feb-21 01:33 34.859286 -117.010636 36 9494ft 143kts
15-Feb-21 01:34 34.872917 -116.963023 90 9492ft 173kts
15-Feb-21 01:35 34.864490 -116.904737 94 9491ft 174kts
15-Feb-21 01:36 34.855745 -116.846972 94 9491ft 173kts
15-Feb-21 01:37 34.846980 -116.789201 94 9491ft 173kts
15-Feb-21 01:38 34.838228 -116.731704 94 9491ft 173kts
15-Feb-21 01:39 34.829409 -116.674107 94 9492ft 173kts
15-Feb-21 01:40 34.820579 -116.616829 94 9492ft 173kts
15-Feb-21 01:41 34.811681 -116.559004 94 9492ft 173kts
15-Feb-21 01:42 34.802818 -116.501545 94 9492ft 173kts
15-Feb-21 01:43 34.793151 -116.444048 97 9492ft 174kts
15-Feb-21 01:44 34.782122 -116.386750 97 9494ft 174kts
15-Feb-21 01:45 34.771056 -116.329660 97 9507ft 172kts
15-Feb-21 01:46 34.760102 -116.273298 97 9521ft 170kts
15-Feb-21 01:47 34.749238 -116.217559 96 9539ft 168kts
15-Feb-21 01:48 34.742489 -116.162383 86 9552ft 163kts
15-Feb-21 01:49 34.739522 -116.107479 86 9555ft 162kts
15-Feb-21 01:50 34.736640 -116.052403 86 9554ft 163kts
15-Feb-21 01:51 34.733757 -115.997435 86 9555ft 163kts
15-Feb-21 01:52 34.730842 -115.942513 85 9556ft 162kts
15-Feb-21 01:53 34.727914 -115.887606 85 9557ft 162kts
15-Feb-21 01:54 34.724967 -115.832992 85 9555ft 162kts
15-Feb-21 01:55 34.722056 -115.777887 89 9548ft 165kts
15-Feb-21 01:56 34.719574 -115.721760 74 9542ft 164kts
15-Feb-21 01:57 34.733072 -115.669457 65 9546ft 162kts
15-Feb-21 01:58 34.747933 -115.617431 65 9528ft 163kts
15-Feb-21 01:59 34.763027 -115.564974 65 9511ft 164kts
15-Feb-21 02:00 34.778214 -115.512174 66 9493ft 165kts
15-Feb-21 02:01 34.799232 -115.465657 14 9479ft 153kts
15-Feb-21 02:02 34.840761 -115.456421 2 9471ft 152kts
15-Feb-21 02:03 34.882851 -115.451267 0 9470ft 151kts
15-Feb-21 02:04 34.924725 -115.446751 359 9468ft 150kts
15-Feb-21 02:05 34.966047 -115.442415 358 9466ft 148kts
15-Feb-21 02:06 35.007004 -115.438134 358 9465ft 146kts
15-Feb-21 02:07 35.047173 -115.433936 357 9465ft 144kts
15-Feb-21 02:08 35.087076 -115.429780 356 9467ft 144kts
15-Feb-21 02:09 35.127211 -115.425594 356 9473ft 145kts
15-Feb-21 02:10 35.167770 -115.421352 356 9475ft 147kts
15-Feb-21 02:11 35.208733 -115.417057 356 9476ft 148kts
15-Feb-21 02:12 35.250092 -115.412719 356 9476ft 149kts
15-Feb-21 02:13 35.291379 -115.408380 356 9477ft 150kts
15-Feb-21 02:14 35.332986 -115.404005 356 9477ft 150kts
15-Feb-21 02:15 35.374780 -115.399607 356 9477ft 151kts
15-Feb-21 02:16 35.416656 -115.395195 356 9477ft 151kts
15-Feb-21 02:17 35.458474 -115.390783 356 9477ft 151kts
15-Feb-21 02:18 35.501048 -115.386347 356 9199ft 167kts
15-Feb-21 02:19 35.550778 -115.381099 358 8164ft 187kts
15-Feb-21 02:20 35.604037 -115.375426 359 7169ft 197kts
15-Feb-21 02:21 35.647609 -115.334072 48 6533ft 193kts
15-Feb-21 02:22 35.681740 -115.286665 29 6534ft 179kts
15-Feb-21 02:23 35.726904 -115.270358 7 6540ft 170kts
15-Feb-21 02:24 35.773554 -115.257946 7 6540ft 172kts
15-Feb-21 02:25 35.822980 -115.244820 9 5880ft 197kts
15-Feb-21 02:26 35.877848 -115.231597 8 5009ft 197kts
15-Feb-21 02:27 35.928338 -115.221458 6 5027ft 176kts
15-Feb-21 02:28 35.976188 -115.212100 6 5028ft 173kts
15-Feb-21 02:29 36.023889 -115.202828 6 5024ft 173kts
15-Feb-21 02:30 36.071596 -115.193850 6 5011ft 174kts
15-Feb-21 02:31 36.117602 -115.183335 14 4996ft 165kts
15-Feb-21 02:32 36.158649 -115.169941 18 4680ft 147kts
15-Feb-21 02:33 36.176426 -115.140080 109 3968ft 113kts
15-Feb-21 02:34 36.150129 -115.127609 195 3010ft 106kts
15-Feb-21 02:35 36.128224 -115.140535 198 2720ft 76kts
15-Feb-21 02:36 36.108915 -115.151136 202 2370ft 78kts
15-Feb-21 02:37 36.091798 -115.161021 207 2112ft 37kts
15-Feb-21 02:38 36.089334 -115.164639 209 2132ft 8kts
15-Feb-21 02:39 36.084957 -115.167267 204 2151ft 19kts
15-Feb-21 02:40 36.081388 -115.170432 247 2166ft 10kts
15-Feb-21 02:41 36.080824 -115.171030 201 2168ft 0kts
15-Feb-21 02:42 36.080824 -115.171030 201 2168ft 0kts

Navigation Log

Ident Type
Flight plan parsing failed, navigation log unavailable